Time;durP1;ratioP1;P1;durP2;ratioP2;P2;SDS_P1;SDS_P2;PMS_P1;PMS_P2;Temp;Humidity;BMP_temperature;BMP_pressure;BME280_temperature;BME280_humidity;BME280_pressure;Samples;Min_cycle;Max_cycle;Signal;HPM_P1;HPM_P2
2022/03/23 00:01:14;;;;;;;14.98;5.90;;;2.20;99.00;;;;;;4955933;28;20031;-72
2022/03/23 00:03:40;;;;;;;10.93;6.45;;;2.20;99.70;;;;;;4955704;29;20102;-72
2022/03/23 00:06:06;;;;;;;11.77;7.45;;;2.10;99.90;;;;;;4955258;28;20478;-72
2022/03/23 00:08:32;;;;;;;14.82;7.53;;;2.10;99.90;;;;;;4955672;28;20031;-72
2022/03/23 00:10:58;;;;;;;12.70;6.30;;;2.00;99.90;;;;;;4955393;28;20035;-73
2022/03/23 00:13:23;;;;;;;14.52;6.55;;;2.10;99.90;;;;;;4955400;29;20024;-73
2022/03/23 00:15:49;;;;;;;8.70;5.97;;;2.00;99.90;;;;;;4955587;29;20023;-73
2022/03/23 00:18:15;;;;;;;13.95;6.22;;;2.00;99.90;;;;;;4955416;29;20022;-73
2022/03/23 00:20:41;;;;;;;15.35;6.50;;;2.00;99.90;;;;;;4955194;29;20098;-73
2022/03/23 00:23:09;;;;;;;11.77;6.68;;;2.00;99.90;;;;;;4955079;29;20598;-72
2022/03/23 00:25:36;;;;;;;11.98;6.50;;;2.00;99.90;;;;;;4955205;28;20038;-72
2022/03/23 00:28:03;;;;;;;12.57;6.30;;;2.00;99.90;;;;;;4954956;28;20102;-73
2022/03/23 00:30:29;;;;;;;13.30;5.90;;;2.00;99.90;;;;;;4955310;28;20423;-72
2022/03/23 00:32:55;;;;;;;10.38;6.45;;;1.90;99.90;;;;;;4955091;29;20019;-73
2022/03/23 00:35:22;;;;;;;10.80;6.22;;;1.90;99.90;;;;;;4955246;28;20030;-72
2022/03/23 00:37:48;;;;;;;11.65;6.82;;;1.80;99.90;;;;;;4954916;28;20042;-72
2022/03/23 00:40:15;;;;;;;11.57;6.60;;;1.80;99.90;;;;;;4954793;28;20039;-72
2022/03/23 00:42:40;;;;;;;10.85;6.07;;;1.80;99.90;;;;;;4955042;29;20119;-73
2022/03/23 00:45:07;;;;;;;12.38;6.35;;;1.80;99.90;;;;;;4954700;28;20519;-73
2022/03/23 00:47:34;;;;;;;13.85;6.28;;;1.80;99.90;;;;;;4954905;29;20108;-73
2022/03/23 00:50:00;;;;;;;12.32;6.47;;;1.80;99.90;;;;;;4954549;29;20031;-73
2022/03/23 00:52:25;;;;;;;14.93;6.78;;;1.80;99.90;;;;;;4954786;29;20054;-73
2022/03/23 00:54:51;;;;;;;16.05;5.97;;;1.70;99.90;;;;;;4954511;29;20047;-73
2022/03/23 00:57:17;;;;;;;15.07;6.47;;;1.70;99.90;;;;;;4954796;28;20035;-73
2022/03/23 00:59:42;;;;;;;11.13;6.38;;;1.70;99.90;;;;;;4954574;29;20070;-73
2022/03/23 01:02:09;;;;;;;13.43;6.43;;;1.70;99.90;;;;;;4954580;29;20039;-73
2022/03/23 01:04:35;;;;;;;13.10;6.22;;;1.60;99.90;;;;;;4954724;28;20058;-78
2022/03/23 01:07:01;;;;;;;10.57;6.32;;;1.60;99.90;;;;;;4954342;29;20468;-76
2022/03/23 01:09:26;;;;;;;10.55;5.95;;;1.60;99.90;;;;;;4954615;28;20058;-76
2022/03/23 01:11:54;;;;;;;10.10;6.03;;;1.60;99.90;;;;;;4954226;28;20121;-76
2022/03/23 01:14:22;;;;;;;10.75;6.03;;;1.60;99.90;;;;;;4954287;28;20130;-77
2022/03/23 01:16:50;;;;;;;10.75;6.25;;;1.50;99.90;;;;;;4954546;28;20031;-76
2022/03/23 01:19:17;;;;;;;10.65;6.70;;;1.50;99.90;;;;;;4954313;28;20066;-77
2022/03/23 01:21:44;;;;;;;15.73;6.30;;;1.50;99.90;;;;;;4953803;28;20059;-77
2022/03/23 01:24:10;;;;;;;15.05;6.22;;;1.50;99.90;;;;;;4954070;28;20491;-79
2022/03/23 01:26:36;;;;;;;12.57;6.38;;;1.50;99.90;;;;;;4954167;28;20035;-79
2022/03/23 01:29:03;;;;;;;10.85;6.25;;;1.40;99.90;;;;;;4953886;28;20023;-79
2022/03/23 01:31:30;;;;;;;12.32;6.13;;;1.40;99.90;;;;;;4954087;28;20035;-79
2022/03/23 01:33:59;;;;;;;14.10;6.75;;;1.40;99.90;;;;;;4953898;28;20480;-79
2022/03/23 01:36:31;;;;;;;10.10;6.68;;;1.40;99.90;;;;;;4954000;28;20400;-79
2022/03/23 01:38:58;;;;;;;11.93;6.40;;;1.30;99.90;;;;;;4953699;28;20043;-76
2022/03/23 01:41:24;;;;;;;12.82;7.03;;;1.30;99.90;;;;;;4954362;28;20064;-76
2022/03/23 01:43:50;;;;;;;12.32;6.07;;;1.30;99.90;;;;;;4954274;28;20030;-78
2022/03/23 01:46:17;;;;;;;9.98;6.30;;;1.30;99.90;;;;;;4953885;28;20419;-78
2022/03/23 01:48:45;;;;;;;12.60;5.47;;;1.30;99.90;;;;;;4953932;28;20055;-78
2022/03/23 01:51:11;;;;;;;14.32;6.40;;;1.30;99.90;;;;;;4953846;28;20030;-78
2022/03/23 01:53:38;;;;;;;13.05;6.63;;;1.20;99.90;;;;;;4954104;28;20387;-77
2022/03/23 01:56:04;;;;;;;17.15;6.47;;;1.20;99.90;;;;;;4954012;28;20410;-77
2022/03/23 01:58:30;;;;;;;12.07;6.97;;;1.10;99.90;;;;;;4953780;28;20107;-77
2022/03/23 02:00:56;;;;;;;11.93;6.28;;;1.10;99.90;;;;;;4953641;28;20086;-77
2022/03/23 02:03:22;;;;;;;8.75;5.85;;;1.10;99.90;;;;;;4953838;29;20031;-77
2022/03/23 02:05:48;;;;;;;12.80;6.72;;;1.10;99.90;;;;;;4954028;28;20463;-76
2022/03/23 02:08:14;;;;;;;14.68;6.43;;;1.20;99.90;;;;;;4953556;28;20031;-76
2022/03/23 02:10:41;;;;;;;11.60;5.72;;;1.20;99.90;;;;;;4953692;28;20030;-76
2022/03/23 02:13:07;;;;;;;15.73;6.07;;;1.10;99.90;;;;;;4953801;28;20035;-77
2022/03/23 02:15:33;;;;;;;17.10;6.60;;;1.10;99.90;;;;;;4953588;28;20039;-77
2022/03/23 02:17:59;;;;;;;14.45;7.07;;;1.10;99.90;;;;;;4953479;29;20026;-77
2022/03/23 02:20:25;;;;;;;17.48;6.45;;;1.00;99.90;;;;;;4953543;28;20067;-77
2022/03/23 02:22:51;;;;;;;20.20;6.57;;;1.10;99.90;;;;;;4953464;29;20028;-77
2022/03/23 02:51:55;;;;;;;11.38;6.07;;;0.90;99.90;;;;;;4955500;29;20098;-77
2022/03/23 03:01:52;;;;;;;8.88;5.93;;;0.90;99.90;;;;;;4956774;29;20534;-77
2022/03/23 03:37:04;;;;;;;13.32;6.72;;;0.60;99.90;;;;;;5766681;23;20117;-77
2022/03/23 03:39:29;;;;;;;9.05;6.30;;;0.60;99.90;;;;;;4955964;29;20492;-77
2022/03/23 03:41:55;;;;;;;15.23;6.32;;;0.60;99.90;;;;;;4956005;29;20455;-77
2022/03/23 03:44:21;;;;;;;9.70;5.55;;;0.60;99.90;;;;;;4955700;28;20027;-77
2022/03/23 03:46:46;;;;;;;12.15;6.68;;;0.60;99.90;;;;;;4955841;29;20031;-76
2022/03/23 03:49:15;;;;;;;13.10;6.45;;;0.60;99.90;;;;;;4955605;29;20066;-77
2022/03/23 03:51:40;;;;;;;11.02;6.43;;;0.60;99.90;;;;;;4955774;29;20027;-76
2022/03/23 03:54:06;;;;;;;13.57;5.53;;;0.60;99.90;;;;;;4955623;29;20081;-76
2022/03/23 03:56:32;;;;;;;11.70;5.57;;;0.60;99.90;;;;;;4955876;29;20015;-75
2022/03/23 03:58:58;;;;;;;12.02;6.18;;;0.60;99.90;;;;;;4955891;29;20035;-77
2022/03/23 04:01:24;;;;;;;15.40;6.68;;;0.60;99.90;;;;;;4955741;29;20023;-78
2022/03/23 04:03:49;;;;;;;10.90;6.70;;;0.60;99.90;;;;;;4955736;29;20475;-78
2022/03/23 04:06:15;;;;;;;11.77;6.20;;;0.60;99.90;;;;;;4955898;29;20027;-78
2022/03/23 04:08:41;;;;;;;11.45;6.18;;;0.50;99.90;;;;;;4955830;29;20387;-77
2022/03/23 04:11:07;;;;;;;9.70;6.15;;;0.50;99.90;;;;;;4955693;29;20122;-78
2022/03/23 04:13:32;;;;;;;13.50;6.95;;;0.50;99.90;;;;;;4955439;29;20102;-78
2022/03/23 04:15:58;;;;;;;11.13;6.15;;;0.50;99.90;;;;;;4955399;29;20033;-78
2022/03/23 04:18:24;;;;;;;12.63;6.80;;;0.50;99.90;;;;;;4955211;29;20114;-78
2022/03/23 04:20:50;;;;;;;12.52;5.75;;;0.50;99.90;;;;;;4955285;29;20490;-78
2022/03/23 04:23:16;;;;;;;8.63;5.50;;;0.60;99.90;;;;;;4954992;29;20038;-78
2022/03/23 04:25:42;;;;;;;14.85;6.70;;;0.60;99.90;;;;;;4955482;29;20035;-78
2022/03/23 04:28:07;;;;;;;14.40;6.60;;;0.50;99.90;;;;;;4955054;29;20025;-78
2022/03/23 04:30:33;;;;;;;14.57;6.28;;;0.50;99.90;;;;;;4955115;29;20390;-78
2022/03/23 04:33:00;;;;;;;10.13;6.45;;;0.50;99.90;;;;;;4955060;29;20027;-77
2022/03/23 04:35:26;;;;;;;12.60;6.35;;;0.50;99.90;;;;;;4954999;29;20035;-77
2022/03/23 04:37:52;;;;;;;18.40;6.47;;;0.50;99.90;;;;;;4954688;28;20047;-77
2022/03/23 04:40:22;;;;;;;13.60;6.40;;;0.50;99.90;;;;;;4954945;29;20605;-76
2022/03/23 04:42:48;;;;;;;12.70;6.18;;;0.50;99.90;;;;;;4954819;28;20027;-77
2022/03/23 04:45:14;;;;;;;12.48;5.82;;;0.50;99.90;;;;;;4955017;28;20023;-76
2022/03/23 04:47:41;;;;;;;11.20;6.20;;;0.50;99.90;;;;;;4954732;29;20023;-76
2022/03/23 04:50:09;;;;;;;12.27;6.60;;;0.50;99.90;;;;;;4954680;28;20038;-76
2022/03/23 04:52:36;;;;;;;17.55;6.18;;;0.50;99.90;;;;;;4954947;28;20435;-76
2022/03/23 04:55:03;;;;;;;13.00;6.18;;;0.50;99.90;;;;;;4954894;28;20038;-76
2022/03/23 04:57:28;;;;;;;12.20;6.60;;;0.50;99.90;;;;;;4954028;28;20098;-76
2022/03/23 04:59:55;;;;;;;11.82;5.88;;;0.50;99.90;;;;;;4954497;29;20668;-76
2022/03/23 05:02:21;;;;;;;9.32;6.00;;;0.50;99.90;;;;;;4954427;28;20063;-77
2022/03/23 05:04:46;;;;;;;13.15;6.07;;;0.50;99.90;;;;;;4954723;28;20090;-79
2022/03/23 05:07:13;;;;;;;16.70;6.65;;;0.50;99.90;;;;;;4953046;29;20048;-76
2022/03/23 05:09:39;;;;;;;17.05;7.00;;;0.50;99.90;;;;;;4954393;29;20035;-76
2022/03/23 05:12:05;;;;;;;17.02;6.90;;;0.50;99.90;;;;;;4954080;28;20034;-76
2022/03/23 05:14:31;;;;;;;12.13;6.20;;;0.50;99.90;;;;;;4954216;28;20043;-75
2022/03/23 05:16:57;;;;;;;17.73;6.97;;;0.50;99.90;;;;;;4953929;29;20039;-74
2022/03/23 05:19:22;;;;;;;12.15;5.65;;;0.50;99.90;;;;;;4953671;29;20039;-76
2022/03/23 05:21:48;;;;;;;10.73;6.07;;;0.50;99.90;;;;;;4954544;28;20027;-75
2022/03/23 05:24:14;;;;;;;17.58;6.78;;;0.50;99.90;;;;;;4954214;29;20086;-75
2022/03/23 05:26:40;;;;;;;14.65;5.65;;;0.50;99.90;;;;;;4954100;29;20035;-78
2022/03/23 05:29:06;;;;;;;9.60;6.60;;;0.60;99.90;;;;;;4953966;29;20049;-75
2022/03/23 05:31:31;;;;;;;11.63;6.43;;;0.60;99.90;;;;;;4953721;29;20027;-77
2022/03/23 05:33:57;;;;;;;13.48;6.55;;;0.60;99.90;;;;;;4953740;28;20032;-69
2022/03/23 05:36:23;;;;;;;12.02;6.75;;;0.70;99.90;;;;;;4953576;28;20023;-71
2022/03/23 05:38:48;;;;;;;14.05;6.95;;;0.70;99.90;;;;;;4952365;29;20055;-69
2022/03/23 05:41:14;;;;;;;14.90;6.70;;;0.80;99.90;;;;;;4953758;29;20058;-73
2022/03/23 05:43:40;;;;;;;13.48;6.28;;;1.00;99.90;;;;;;4953348;28;20051;-71
2022/03/23 05:46:05;;;;;;;17.10;6.68;;;1.30;99.90;;;;;;4953140;29;20065;-77
2022/03/23 05:48:31;;;;;;;21.15;7.93;;;1.70;99.90;;;;;;4954004;29;20113;-76
2022/03/23 05:50:57;;;;;;;17.40;6.32;;;2.00;99.90;;;;;;4954857;28;20133;-79
2022/03/23 05:53:22;;;;;;;15.05;7.68;;;2.40;99.90;;;;;;4971588;28;20038;-79
2022/03/23 05:55:48;;;;;;;22.83;7.07;;;2.70;99.90;;;;;;4973107;28;20430;-79
2022/03/23 05:58:14;;;;;;;17.92;8.55;;;3.00;99.90;;;;;;4972784;28;20026;-78
2022/03/23 06:00:40;;;;;;;13.65;6.93;;;3.40;99.90;;;;;;4970843;28;20513;-76
2022/03/23 06:03:06;;;;;;;15.75;5.97;;;3.60;99.90;;;;;;4973187;28;20029;-81
2022/03/23 06:05:31;;;;;;;15.70;5.93;;;3.80;99.90;;;;;;4970232;28;20023;-80
2022/03/23 06:07:57;;;;;;;9.73;5.57;;;3.90;99.90;;;;;;4973744;28;20058;-71
2022/03/23 06:10:23;;;;;;;14.27;5.90;;;4.10;99.90;;;;;;4976361;28;20018;-71
2022/03/23 06:12:48;;;;;;;15.68;5.63;;;4.20;99.90;;;;;;4976120;28;20035;-72
2022/03/23 06:15:14;;;;;;;17.85;6.75;;;4.40;99.90;;;;;;4973954;28;20265;-72
2022/03/23 06:17:40;;;;;;;15.55;6.30;;;4.60;99.90;;;;;;4976250;28;20446;-71
2022/03/23 06:20:07;;;;;;;19.85;6.40;;;4.80;99.90;;;;;;4976171;28;20037;-71
2022/03/23 06:22:32;;;;;;;21.00;6.28;;;4.90;99.90;;;;;;4971207;28;20023;-71
2022/03/23 06:24:58;;;;;;;18.80;6.68;;;5.00;99.90;;;;;;4976863;28;20034;-70
2022/03/23 06:27:25;;;;;;;16.95;6.25;;;5.10;99.90;;;;;;4976645;28;20030;-70
2022/03/23 06:29:51;;;;;;;16.65;5.78;;;5.20;99.90;;;;;;4976747;28;20080;-71
2022/03/23 06:32:17;;;;;;;20.45;5.82;;;5.30;99.80;;;;;;4976606;28;20102;-71
2022/03/23 06:34:43;;;;;;;37.60;6.57;;;5.40;99.00;;;;;;4976742;28;20027;-71
2022/03/23 06:37:09;;;;;;;22.27;6.00;;;5.50;98.70;;;;;;4976154;28;20043;-78
2022/03/23 06:39:35;;;;;;;10.50;5.10;;;5.60;98.10;;;;;;4976140;28;20043;-71
2022/03/23 06:42:01;;;;;;;16.08;5.82;;;5.60;98.00;;;;;;4976145;28;20074;-71
2022/03/23 06:44:27;;;;;;;17.70;6.07;;;5.70;97.50;;;;;;4976061;28;20033;-83
2022/03/23 06:46:53;;;;;;;17.77;6.05;;;5.90;97.30;;;;;;4976403;28;20035;-71
2022/03/23 06:49:18;;;;;;;14.10;5.50;;;6.00;96.80;;;;;;4976311;28;20054;-70
2022/03/23 06:51:44;;;;;;;26.70;6.65;;;6.00;96.30;;;;;;4976400;28;20509;-70
2022/03/23 06:54:10;;;;;;;20.15;5.95;;;6.10;96.30;;;;;;4976021;28;20030;-70
2022/03/23 06:56:36;;;;;;;14.30;5.22;;;6.20;95.80;;;;;;4976230;28;20022;-70
2022/03/23 06:59:03;;;;;;;24.17;5.80;;;6.20;95.20;;;;;;4976195;28;20426;-70
2022/03/23 07:01:29;;;;;;;19.90;6.45;;;6.20;95.20;;;;;;4975826;28;20035;-70
2022/03/23 07:03:55;;;;;;;14.43;6.15;;;6.30;95.00;;;;;;4976170;28;20078;-71
2022/03/23 07:06:21;;;;;;;12.57;5.68;;;6.30;94.90;;;;;;4976040;28;20034;-70
2022/03/23 07:11:31;;;;;;;14.80;6.03;;;6.60;99.90;;;;;;4975929;28;20118;-71
2022/03/23 07:13:57;;;;;;;23.08;6.45;;;6.70;95.80;;;;;;4975701;28;20046;-68
2022/03/23 07:16:23;;;;;;;15.13;6.53;;;6.70;94.70;;;;;;4975639;28;20023;-83
2022/03/23 07:18:49;;;;;;;15.32;6.10;;;6.70;94.30;;;;;;4975872;28;20027;-81
2022/03/23 07:21:15;;;;;;;21.15;5.88;;;6.60;94.10;;;;;;4974576;28;20043;-70
2022/03/23 07:23:41;;;;;;;16.77;6.35;;;6.60;94.20;;;;;;4975556;28;20512;-71
2022/03/23 07:26:06;;;;;;;11.48;5.72;;;6.70;94.10;;;;;;4975774;28;20123;-71
2022/03/23 07:28:32;;;;;;;12.80;5.95;;;6.70;94.00;;;;;;4975350;28;20516;-71
2022/03/23 07:30:59;;;;;;;32.72;6.07;;;6.60;93.90;;;;;;4975437;28;20058;-70
2022/03/23 07:33:25;;;;;;;19.63;5.95;;;6.60;94.20;;;;;;4975095;28;20031;-71
2022/03/23 07:35:51;;;;;;;16.05;6.32;;;6.60;94.60;;;;;;4975313;28;20023;-70
2022/03/23 07:38:18;;;;;;;16.38;6.57;;;6.60;94.40;;;;;;4974955;28;20579;-74
2022/03/23 07:40:43;;;;;;;20.27;6.60;;;6.50;94.70;;;;;;4975231;28;20070;-73
2022/03/23 07:43:09;;;;;;;27.52;6.47;;;6.50;95.10;;;;;;4973883;28;20054;-70
2022/03/23 07:45:35;;;;;;;19.90;6.53;;;6.60;99.90;;;;;;4974944;28;20415;-69
2022/03/23 07:48:01;;;;;;;14.20;6.68;;;6.60;97.00;;;;;;4965423;28;20110;-70
2022/03/23 07:50:27;;;;;;;17.52;7.55;;;6.60;96.40;;;;;;4973795;28;20030;-72
2022/03/23 07:52:53;;;;;;;16.02;5.78;;;6.60;96.50;;;;;;4962305;28;20027;-70
2022/03/23 07:55:19;;;;;;;17.95;6.43;;;6.50;96.70;;;;;;4969729;28;20031;-71
2022/03/23 07:57:45;;;;;;;14.77;6.38;;;6.50;97.00;;;;;;4957510;28;20090;-68
2022/03/23 08:00:11;;;;;;;18.08;6.93;;;6.50;97.40;;;;;;4967746;28;20118;-68
2022/03/23 08:02:37;;;;;;;12.95;6.82;;;6.40;97.80;;;;;;4964056;28;20061;-67
2022/03/23 08:05:04;;;;;;;17.20;7.50;;;6.50;98.10;;;;;;4959638;28;20106;-67
2022/03/23 08:07:30;;;;;;;12.07;6.80;;;6.50;98.40;;;;;;4970376;28;20030;-67
2022/03/23 08:09:56;;;;;;;19.25;6.60;;;6.50;98.60;;;;;;4973806;28;20536;-68
2022/03/23 08:12:22;;;;;;;14.43;7.03;;;6.50;98.60;;;;;;4974043;28;20189;-69
2022/03/23 08:14:47;;;;;;;14.82;6.95;;;6.60;98.80;;;;;;4974399;28;20033;-69
2022/03/23 08:17:13;;;;;;;15.88;6.57;;;6.60;98.90;;;;;;4973926;28;20027;-68
2022/03/23 08:19:39;;;;;;;18.42;6.95;;;6.70;99.30;;;;;;4973718;28;20044;-67
2022/03/23 08:22:05;;;;;;;15.80;7.53;;;6.70;99.30;;;;;;4973698;28;20110;-68
2022/03/23 08:24:32;;;;;;;15.55;6.82;;;6.70;99.50;;;;;;4974014;28;20026;-69
2022/03/23 08:26:59;;;;;;;18.48;7.22;;;6.80;99.90;;;;;;4974278;28;20027;-67
2022/03/23 08:29:25;;;;;;;12.73;6.68;;;6.90;99.90;;;;;;4974299;28;20069;-67
2022/03/23 08:31:52;;;;;;;8.38;3.08;;;6.90;99.90;;;;;;4973291;28;20054;-65
2022/03/23 08:34:18;;;;;;;52.20;7.15;;;7.80;99.90;;;;;;4974323;28;20035;-69
2022/03/23 08:36:44;;;;;;;32.15;7.50;;;9.40;99.90;;;;;;4973224;28;20054;-70
2022/03/23 08:39:10;;;;;;;25.35;7.13;;;9.10;97.90;;;;;;4974130;28;20035;-70
2022/03/23 08:41:36;;;;;;;16.88;6.43;;;8.60;95.50;;;;;;4974153;28;20105;-70
2022/03/23 08:44:03;;;;;;;16.15;7.13;;;8.30;95.80;;;;;;4974186;28;20109;-70
2022/03/23 08:46:29;;;;;;;16.58;6.45;;;8.00;96.40;;;;;;4967805;28;20055;-70
2022/03/23 08:48:55;;;;;;;20.70;7.07;;;7.80;97.60;;;;;;4953825;28;20038;-70
2022/03/23 08:51:20;;;;;;;13.77;7.47;;;7.70;98.10;;;;;;4963111;28;20031;-70
2022/03/23 08:53:47;;;;;;;16.38;6.97;;;7.70;98.20;;;;;;4968688;28;20394;-70
2022/03/23 08:56:13;;;;;;;12.65;6.90;;;7.70;98.50;;;;;;4965177;28;20034;-70
2022/03/23 08:58:47;;;;;;;19.38;7.22;;;7.60;98.50;;;;;;4957210;28;20015;-70
2022/03/23 09:01:14;;;;;;;13.60;7.55;;;7.60;98.70;;;;;;4967619;28;20130;-70
2022/03/23 09:03:40;;;;;;;20.83;6.60;;;7.70;98.60;;;;;;4965397;28;20019;-71
2022/03/23 09:06:06;;;;;;;39.22;7.85;;;7.60;98.50;;;;;;4963553;28;20027;-68
2022/03/23 09:08:32;;;;;;;19.55;6.85;;;7.60;98.70;;;;;;4954212;28;20065;-68
2022/03/23 09:10:59;;;;;;;21.73;6.88;;;7.70;99.30;;;;;;4964305;28;20035;-68
2022/03/23 09:13:25;;;;;;;17.80;7.57;;;7.80;98.70;;;;;;4973312;28;20054;-67
2022/03/23 09:15:50;;;;;;;18.88;6.45;;;7.80;97.90;;;;;;4973566;28;20448;-68
2022/03/23 09:18:16;;;;;;;15.77;6.95;;;7.90;97.70;;;;;;4973203;28;20027;-68
2022/03/23 09:20:42;;;;;;;15.75;6.95;;;7.90;97.70;;;;;;4973321;28;20077;-73
2022/03/23 09:23:08;;;;;;;23.25;6.93;;;7.90;97.30;;;;;;4973652;28;20031;-69
2022/03/23 09:25:35;;;;;;;18.02;7.20;;;8.20;99.90;;;;;;4971995;28;20035;-70
2022/03/23 09:28:02;;;;;;;37.13;7.50;;;8.40;99.90;;;;;;4973413;28;20497;-70
2022/03/23 09:30:27;;;;;;;16.17;6.07;;;8.40;97.50;;;;;;4973242;28;20019;-70
2022/03/23 09:32:54;;;;;;;19.88;6.55;;;8.30;96.00;;;;;;4973344;28;20023;-71
2022/03/23 09:35:20;;;;;;;16.52;6.05;;;8.30;95.50;;;;;;4973155;28;20023;-71
2022/03/23 09:37:49;;;;;;;10.77;5.90;;;8.20;95.50;;;;;;4973080;28;20062;-71
2022/03/23 09:40:20;;;;;;;23.67;6.28;;;8.10;95.20;;;;;;4972806;28;20540;-70
2022/03/23 09:42:46;;;;;;;16.40;5.95;;;8.20;95.50;;;;;;4953650;28;20035;-70
2022/03/23 09:45:47;;;;;;;16.50;5.35;;;8.20;95.30;;;;;;4954282;28;20038;-70
2022/03/23 09:48:09;;;;;;;12.52;5.43;;;8.20;95.00;;;;;;4952042;28;20074;-69
2022/03/23 09:50:37;;;;;;;18.00;5.47;;;8.20;94.80;;;;;;4953716;28;20031;-71
2022/03/23 09:53:03;;;;;;;20.42;5.35;;;8.30;94.90;;;;;;4953917;28;20035;-70
2022/03/23 09:55:29;;;;;;;15.77;5.07;;;8.30;94.40;;;;;;4953943;28;20039;-74
2022/03/23 09:58:00;;;;;;;11.00;5.38;;;8.40;94.30;;;;;;4953719;28;20236;-77
2022/03/23 10:00:30;;;;;;;9.45;4.45;;;8.40;94.10;;;;;;4954072;28;20035;-73
2022/03/23 10:02:56;;;;;;;13.32;4.80;;;8.50;94.40;;;;;;4953931;28;20027;-73
2022/03/23 10:05:22;;;;;;;13.88;4.82;;;8.50;93.70;;;;;;4953833;28;20038;-76
2022/03/23 10:08:00;;;;;;;5.93;4.25;;;8.50;93.80;;;;;;4953724;28;20027;-74
2022/03/23 10:10:48;;;;;;;9.68;4.00;;;8.60;93.90;;;;;;4953618;28;20121;-74
2022/03/23 10:13:59;;;;;;;12.80;4.63;;;8.60;93.40;;;;;;4953476;28;20027;-74
2022/03/23 10:17:01;;;;;;;9.25;4.60;;;8.60;93.30;;;;;;4953421;29;20077;-71
2022/03/23 10:19:27;;;;;;;11.57;4.05;;;8.60;93.40;;;;;;4953125;29;20114;-72
2022/03/23 10:21:53;;;;;;;8.82;4.10;;;8.60;93.50;;;;;;4953360;28;20102;-74
2022/03/23 10:24:19;;;;;;;13.90;4.70;;;8.60;93.40;;;;;;4953149;28;20027;-73
2022/03/23 10:26:49;;;;;;;8.95;3.78;;;8.60;93.30;;;;;;4953486;28;20027;-70
2022/03/23 10:29:24;;;;;;;8.52;4.00;;;8.60;93.00;;;;;;4953250;28;20078;-72
2022/03/23 10:32:05;;;;;;;8.60;4.18;;;8.60;93.20;;;;;;4954213;28;20031;-72
2022/03/23 10:35:01;;;;;;;11.60;4.63;;;8.60;93.30;;;;;;4953170;28;20360;-71
2022/03/23 10:37:29;;;;;;;14.25;3.85;;;8.70;93.30;;;;;;4952768;28;20151;-72
2022/03/23 10:39:57;;;;;;;13.50;3.60;;;8.70;93.00;;;;;;4953037;28;20066;-71
2022/03/23 10:42:26;;;;;;;10.43;4.47;;;8.70;92.90;;;;;;4953133;28;20074;-71
2022/03/23 10:45:12;;;;;;;9.93;3.92;;;8.80;92.90;;;;;;4953547;28;20066;-71
2022/03/23 10:47:39;;;;;;;7.05;3.40;;;8.90;92.90;;;;;;4953363;28;20054;-71
2022/03/23 10:50:23;;;;;;;6.97;3.80;;;8.90;92.80;;;;;;4956050;28;20027;-71
2022/03/23 10:53:00;;;;;;;6.65;3.50;;;8.90;92.40;;;;;;4972787;28;20117;-71
2022/03/23 10:55:29;;;;;;;12.32;3.70;;;8.90;92.10;;;;;;4973730;28;20050;-72
2022/03/23 10:58:19;;;;;;;9.25;3.65;;;9.00;92.30;;;;;;4976063;28;20034;-72
2022/03/23 11:00:45;;;;;;;;;;;9.00;92.10;;;;;;4969321;28;20051;-71
2022/03/23 11:03:11;;;;;;;10.38;3.63;;;9.10;92.20;;;;;;4976303;28;19906;-71
2022/03/23 11:05:37;;;;;;;5.90;3.75;;;9.10;91.90;;;;;;4975981;28;20025;-70
2022/03/23 11:08:11;;;;;;;12.63;3.97;;;9.10;91.70;;;;;;4975884;28;20023;-69
2022/03/23 11:16:27;;;;;;;10.45;3.33;;;9.20;91.40;;;;;;4975919;28;20030;-69
2022/03/23 11:19:19;;;;;;;9.63;2.92;;;9.20;91.40;;;;;;4976053;28;20089;-69
2022/03/23 11:22:09;;;;;;;29.38;4.28;;;9.30;91.30;;;;;;4968858;28;20049;-70
2022/03/23 11:24:37;;;;;;;6.72;2.78;;;9.30;91.10;;;;;;4975314;28;20046;-69
2022/03/23 11:27:08;;;;;;;8.07;3.13;;;9.30;90.80;;;;;;4975852;28;20122;-69
2022/03/23 11:29:37;;;;;;;7.35;3.60;;;9.30;90.60;;;;;;4975266;28;20026;-69
2022/03/23 11:32:07;;;;;;;8.80;3.90;;;9.30;90.70;;;;;;4975696;28;20039;-69
2022/03/23 11:34:36;;;;;;;11.02;3.20;;;9.30;90.60;;;;;;4975222;28;20019;-69
2022/03/23 11:37:04;;;;;;;10.50;3.42;;;9.40;90.60;;;;;;4975416;28;20043;-69
2022/03/23 11:39:31;;;;;;;4.43;3.17;;;9.40;90.60;;;;;;4975452;28;20114;-69
2022/03/23 11:41:58;;;;;;;11.35;3.95;;;9.40;90.50;;;;;;4975573;28;20031;-69
2022/03/23 11:44:26;;;;;;;7.47;3.22;;;9.40;90.20;;;;;;4974887;28;20030;-72
2022/03/23 11:46:57;;;;;;;5.32;3.45;;;9.40;90.40;;;;;;4975307;28;20391;-68
2022/03/23 11:49:44;;;;;;;12.10;3.80;;;9.50;90.30;;;;;;4975110;28;20027;-67
2022/03/23 11:52:31;;;;;;;11.18;3.30;;;9.50;91.90;;;;;;4974904;28;20031;-69
2022/03/23 11:55:38;;;;;;;5.38;3.03;;;9.60;90.40;;;;;;4975182;28;20030;-69
2022/03/23 11:58:34;;;;;;;13.00;3.10;;;9.60;90.10;;;;;;4974890;28;20110;-69
2022/03/23 12:01:14;;;;;;;8.70;3.28;;;9.60;90.20;;;;;;4975192;28;20458;-70
2022/03/23 12:03:52;;;;;;;7.15;3.20;;;9.60;90.10;;;;;;4974815;28;20616;-69
2022/03/23 12:06:22;;;;;;;12.80;3.28;;;9.60;90.00;;;;;;4974893;28;20038;-69
2022/03/23 12:08:55;;;;;;;12.25;3.17;;;9.60;89.90;;;;;;4974925;28;20026;-70
2022/03/23 12:11:31;;;;;;;14.13;3.60;;;9.60;90.20;;;;;;4975172;28;20478;-69
2022/03/23 12:13:58;;;;;;;10.52;3.03;;;9.70;90.10;;;;;;4974481;28;20035;-69
2022/03/23 12:16:51;;;;;;;7.38;2.92;;;9.60;90.10;;;;;;4974833;28;20022;-70
2022/03/23 12:19:18;;;;;;;8.90;2.90;;;9.70;90.20;;;;;;4966674;28;20061;-70
2022/03/23 12:22:05;;;;;;;8.15;2.72;;;9.70;90.20;;;;;;4957451;28;20063;-69
2022/03/23 12:25:04;;;;;;;14.70;3.17;;;9.70;89.70;;;;;;4945318;29;20038;-69
2022/03/23 12:27:47;;;;;;;5.38;2.78;;;9.70;90.00;;;;;;4973012;28;20394;-70
2022/03/23 12:30:22;;;;;;;7.53;2.67;;;9.70;89.80;;;;;;4974709;28;20023;-69
2022/03/23 12:32:48;;;;;;;4.93;2.70;;;9.70;90.10;;;;;;4974353;28;20074;-69
2022/03/23 12:35:14;;;;;;;16.73;3.53;;;9.70;90.00;;;;;;4974514;28;20033;-70
2022/03/23 12:37:42;;;;;;;9.70;2.67;;;9.70;89.70;;;;;;4973792;28;20070;-69
2022/03/23 12:40:13;;;;;;;6.00;3.03;;;9.80;89.70;;;;;;4973644;28;20046;-70
2022/03/23 12:42:43;;;;;;;5.15;2.50;;;9.80;89.60;;;;;;4973957;28;20023;-70
2022/03/23 12:45:13;;;;;;;8.50;2.53;;;9.80;89.40;;;;;;4973886;28;20109;-70
2022/03/23 12:47:56;;;;;;;18.27;2.88;;;9.80;89.10;;;;;;4973610;28;20065;-72
2022/03/23 12:59:20;;;;;;;7.38;1.77;;;10.00;88.00;;;;;;4963395;28;20058;-72
2022/03/23 13:01:46;;;;;;;10.98;2.08;;;10.00;88.30;;;;;;4962816;28;20118;-72
2022/03/23 13:04:44;;;;;;;5.82;2.10;;;10.00;88.50;;;;;;4973589;28;20446;-72
2022/03/23 13:07:28;;;;;;;19.05;2.45;;;10.00;88.60;;;;;;4973322;28;20089;-72
2022/03/23 13:10:04;;;;;;;6.63;2.28;;;10.00;88.70;;;;;;4973205;28;20042;-73
2022/03/23 13:12:31;;;;;;;9.40;2.10;;;10.00;89.60;;;;;;4973332;28;20029;-72
2022/03/23 13:14:58;;;;;;;7.03;2.00;;;10.10;90.10;;;;;;4972939;28;20482;-72
2022/03/23 13:17:24;;;;;;;3.00;1.60;;;10.10;89.00;;;;;;4972299;28;20110;-70
2022/03/23 13:19:56;;;;;;;15.07;1.90;;;10.20;88.70;;;;;;4973291;28;20110;-70
2022/03/23 13:22:38;;;;;;;6.10;2.00;;;10.70;97.80;;;;;;4973506;28;20031;-69
2022/03/23 13:25:05;;;;;;;6.07;1.35;;;11.00;88.70;;;;;;4973372;28;20117;-70
2022/03/23 13:27:31;;;;;;;4.07;2.08;;;10.80;86.60;;;;;;4973377;28;20026;-70
2022/03/23 13:30:05;;;;;;;17.25;2.30;;;10.60;86.30;;;;;;4973033;28;20489;-68
2022/03/23 13:32:36;;;;;;;6.00;1.77;;;10.50;87.30;;;;;;4973474;28;20520;-69
2022/03/23 13:35:11;;;;;;;2.22;1.55;;;10.40;86.60;;;;;;4973180;28;20390;-68
2022/03/23 13:38:03;;;;;;;96.03;7.65;;;10.30;87.00;;;;;;4972672;28;20050;-68
2022/03/23 13:43:19;;;;;;;4.28;2.17;;;10.30;87.50;;;;;;4972958;28;20035;-68
2022/03/23 13:43:21;;;;;;;9.63;1.95;;;10.30;87.50;;;;;;4973030;28;20074;-68
2022/03/23 13:45:51;;;;;;;10.00;2.53;;;10.30;87.40;;;;;;4963002;28;20039;-68
2022/03/23 13:48:18;;;;;;;4.53;2.00;;;10.30;87.60;;;;;;4953887;28;20031;-68
2022/03/23 13:50:49;;;;;;;12.65;2.15;;;10.30;87.60;;;;;;4966618;28;20117;-71
2022/03/23 13:53:20;;;;;;;110.78;7.03;;;10.30;87.60;;;;;;4973445;28;20035;-72
2022/03/23 13:55:47;;;;;;;4.22;1.90;;;10.30;87.70;;;;;;4972742;28;20031;-73
2022/03/23 13:58:18;;;;;;;16.55;2.88;;;10.40;90.50;;;;;;4972864;28;20082;-70
2022/03/23 14:00:45;;;;;;;38.33;4.78;;;10.70;91.60;;;;;;4973148;28;20141;-74
2022/03/23 14:03:15;;;;;;;9.15;2.40;;;10.80;90.70;;;;;;4973326;28;20075;-74
2022/03/23 14:06:07;;;;;;;2.35;1.80;;;10.80;87.50;;;;;;4973026;28;20054;-68
2022/03/23 14:08:36;;;;;;;6.40;1.83;;;10.80;95.30;;;;;;4973110;28;20154;-71
2022/03/23 14:11:08;;;;;;;42.95;4.40;;;11.20;91.90;;;;;;4972943;28;20027;-71
2022/03/23 14:13:35;;;;;;;13.80;2.55;;;11.10;88.40;;;;;;4973129;28;20023;-71
2022/03/23 14:16:03;;;;;;;13.32;2.55;;;11.00;87.50;;;;;;4972882;28;20026;-71
2022/03/23 14:18:31;;;;;;;13.23;2.33;;;10.90;87.30;;;;;;4973192;28;20397;-71
2022/03/23 14:20:58;;;;;;;8.95;2.10;;;10.80;87.20;;;;;;4972732;28;20066;-71